Time;durP1;ratioP1;P1;durP2;ratioP2;P2;SDS_P1;SDS_P2;PMS_P1;PMS_P2;Temp;Humidity;BMP_temperature;BMP_pressure;BME280_temperature;BME280_humidity;BME280_pressure;Samples;Min_cycle;Max_cycle;Signal;HPM_P1;HPM_P2
2023/08/19 00:02:10;;;;;;;;;;;;;;;24.05;73.59;101242.91;4994892;28;3950;-73
2023/08/19 00:04:36;;;;;;;;;;;;;;;24.04;73.65;101244.31;5003375;28;3954;-72
2023/08/19 00:07:02;;;;;;;;;;;;;;;24.06;73.43;101237.88;5002709;28;4035;-72
2023/08/19 00:09:29;;;;;;;;;;;;;;;24.05;73.36;101225.53;4991295;28;4183;-72
2023/08/19 00:11:55;;;;;;;;;;;;;;;24.05;73.59;101234.22;4992422;28;4557;-70
2023/08/19 00:14:23;;;;;;;;;;;;;;;23.97;73.63;101242.63;4993871;28;4194;-73
2023/08/19 00:16:49;;;;;;;;;;;;;;;23.96;73.62;101241.13;4999328;28;4184;-71
2023/08/19 00:19:16;;;;;;;;;;;;;;;23.99;73.46;101243.44;4997681;28;4180;-72
2023/08/19 00:21:42;;;;;;;;;;;;;;;24.03;73.32;101242.84;4997386;28;4070;-73
2023/08/19 00:24:09;;;;;;;;;;;;;;;24.02;73.33;101239.19;5003727;28;4136;-72
2023/08/19 00:26:35;;;;;;;;;;;;;;;23.95;73.37;101248.31;5000285;28;4083;-73
2023/08/19 00:29:02;;;;;;;;;;;;;;;23.96;73.63;101246.91;4996154;28;5088;-72
2023/08/19 00:31:29;;;;;;;;;;;;;;;23.95;73.63;101240.38;5006674;28;4154;-73
2023/08/19 00:33:55;;;;;;;;;;;;;;;23.95;73.52;101245.44;5008012;28;4175;-72
2023/08/19 00:36:21;;;;;;;;;;;;;;;23.94;73.71;101243.97;4997478;28;4164;-73
2023/08/19 00:38:56;;;;;;;;;;;;;;;23.93;73.79;101248.97;5014564;28;4124;-73
2023/08/19 00:41:22;;;;;;;;;;;;;;;23.93;73.58;101242.44;5000124;28;4131;-73
2023/08/19 00:43:48;;;;;;;;;;;;;;;23.91;73.67;101245.25;4998387;28;4035;-73
2023/08/19 00:46:15;;;;;;;;;;;;;;;23.94;73.71;101238.16;4999304;28;4154;-73
2023/08/19 00:48:41;;;;;;;;;;;;;;;23.93;73.53;101236.66;4999834;28;4136;-71
2023/08/19 00:51:08;;;;;;;;;;;;;;;23.92;73.49;101238.09;5014469;28;3918;-70
2023/08/19 00:53:35;;;;;;;;;;;;;;;23.94;73.57;101238.91;4999184;28;3916;-73
2023/08/19 00:56:01;;;;;;;;;;;;;;;23.93;73.56;101237.41;5014407;28;4163;-70
2023/08/19 00:58:28;;;;;;;;;;;;;;;23.95;73.32;101231.69;4999939;28;4168;-73
2023/08/19 01:00:56;;;;;;;;;;;;;;;23.94;73.30;101238.16;4992211;28;5007;-70
2023/08/19 01:03:23;;;;;;;;;;;;;;;23.91;73.41;101236.59;4999992;28;4264;-72
2023/08/19 01:05:52;;;;;;;;;;;;;;;23.86;73.41;101226.28;5021125;28;4151;-71
2023/08/19 01:08:21;;;;;;;;;;;;;;;23.89;73.25;101225.72;4980945;28;4108;-72
2023/08/19 01:10:50;;;;;;;;;;;;;;;23.90;73.27;101232.22;5001345;28;4213;-72
2023/08/19 01:13:18;;;;;;;;;;;;;;;23.94;73.10;101229.50;4997037;28;3971;-72
2023/08/19 01:15:52;;;;;;;;;;;;;;;23.91;73.09;101239.47;4981690;28;4105;-72
2023/08/19 01:18:18;;;;;;;;;;;;;;;23.90;73.05;101223.53;4991762;28;4391;-72
2023/08/19 01:20:45;;;;;;;;;;;;;;;23.85;73.15;101225.53;5000145;28;4142;-73
2023/08/19 01:23:15;;;;;;;;;;;;;;;23.84;73.21;101218.25;4999134;28;4010;-72
2023/08/19 01:25:42;;;;;;;;;;;;;;;23.82;73.49;101218.19;4987985;28;4191;-72
2023/08/19 01:28:09;;;;;;;;;;;;;;;23.81;73.32;101208.78;4996317;28;4164;-72
2023/08/19 01:30:35;;;;;;;;;;;;;;;23.83;72.83;101211.75;4993184;28;4255;-72
2023/08/19 01:33:02;;;;;;;;;;;;;;;23.78;73.28;101221.69;5006601;28;4100;-72
2023/08/19 01:35:29;;;;;;;;;;;;;;;23.82;73.19;101221.06;5002637;28;4178;-72
2023/08/19 01:38:03;;;;;;;;;;;;;;;23.77;72.98;101223.06;5004125;28;4127;-72
2023/08/19 01:40:29;;;;;;;;;;;;;;;23.77;73.16;101217.28;5001094;28;4320;-72
2023/08/19 01:42:56;;;;;;;;;;;;;;;23.79;73.16;101222.41;4999301;28;3988;-72
2023/08/19 01:45:22;;;;;;;;;;;;;;;23.79;73.08;101219.53;5001044;28;4339;-72
2023/08/19 01:47:53;;;;;;;;;;;;;;;23.82;72.82;101232.66;4992027;28;4188;-72
2023/08/19 01:50:19;;;;;;;;;;;;;;;23.79;72.93;101222.41;5003718;28;4334;-72
2023/08/19 01:52:46;;;;;;;;;;;;;;;23.79;72.56;101233.97;5011228;28;4036;-73
2023/08/19 01:55:12;;;;;;;;;;;;;;;23.76;72.75;101226.66;4998299;28;4062;-72
2023/08/19 01:57:39;;;;;;;;;;;;;;;23.76;72.48;101217.97;4998626;28;4113;-72
2023/08/19 02:00:07;;;;;;;;;;;;;;;23.76;72.36;101218.72;4993990;28;4160;-72
2023/08/19 02:02:42;;;;;;;;;;;;;;;23.73;72.41;101219.25;4998153;28;4239;-72
2023/08/19 02:05:12;;;;;;;;;;;;;;;23.70;72.40;101209.03;4995794;28;5207;-72
2023/08/19 02:07:39;;;;;;;;;;;;;;;23.66;72.53;101212.50;4996198;28;4031;-72
2023/08/19 02:10:06;;;;;;;;;;;;;;;23.68;72.46;101218.34;5003054;28;4186;-72
2023/08/19 02:12:32;;;;;;;;;;;;;;;23.68;72.29;101218.34;4995027;28;3943;-72
2023/08/19 02:15:00;;;;;;;;;;;;;;;23.68;72.25;101212.56;5012777;28;4131;-72
2023/08/19 02:17:27;;;;;;;;;;;;;;;23.69;72.14;101216.22;4992063;28;4091;-71
2023/08/19 02:19:53;;;;;;;;;;;;;;;23.71;72.00;101217.03;4992293;28;4126;-71
2023/08/19 02:22:21;;;;;;;;;;;;;;;23.68;72.15;101218.34;4998568;28;4059;-72
2023/08/19 02:24:47;;;;;;;;;;;;;;;23.68;71.82;101217.63;4998367;28;4149;-72
2023/08/19 02:27:13;;;;;;;;;;;;;;;23.61;71.80;101210.88;4997729;28;4136;-72
2023/08/19 02:29:40;;;;;;;;;;;;;;;23.62;71.76;101218.88;4998772;28;4157;-72
2023/08/19 02:32:06;;;;;;;;;;;;;;;23.64;71.47;101218.22;4997336;28;4058;-72
2023/08/19 02:34:33;;;;;;;;;;;;;;;23.58;71.35;101220.88;4998942;28;4378;-71
2023/08/19 02:36:59;;;;;;;;;;;;;;;23.62;71.10;101215.97;4994180;28;4073;-72
2023/08/19 02:39:26;;;;;;;;;;;;;;;23.63;71.17;101222.50;4994636;28;4038;-72
2023/08/19 02:41:52;;;;;;;;;;;;;;;23.62;71.03;101215.25;4996770;28;4111;-71
2023/08/19 02:44:18;;;;;;;;;;;;;;;23.57;70.94;101231.69;4998359;28;4125;-72
2023/08/19 02:46:45;;;;;;;;;;;;;;;23.60;71.19;101226.72;5003454;28;3987;-71
2023/08/19 02:49:11;;;;;;;;;;;;;;;23.59;71.16;101217.31;4997398;28;4184;-71
2023/08/19 02:51:38;;;;;;;;;;;;;;;23.58;71.21;101227.38;4992487;28;4213;-71
2023/08/19 02:54:04;;;;;;;;;;;;;;;23.58;70.92;101226.66;5009212;28;5176;-71
2023/08/19 02:56:31;;;;;;;;;;;;;;;23.51;70.91;101219.16;5012990;28;4189;-71
2023/08/19 02:58:57;;;;;;;;;;;;;;;23.47;70.85;101219.72;4996875;28;4435;-71
2023/08/19 03:01:24;;;;;;;;;;;;;;;23.47;70.88;101233.44;4997266;28;4076;-70
2023/08/19 03:03:50;;;;;;;;;;;;;;;23.45;70.88;101225.41;4996373;28;4048;-70
2023/08/19 03:06:16;;;;;;;;;;;;;;;23.49;70.99;101230.63;4992903;28;4166;-71
2023/08/19 03:08:43;;;;;;;;;;;;;;;23.53;70.97;101236.56;4993717;28;4778;-71
2023/08/19 03:11:09;;;;;;;;;;;;;;;23.54;70.95;101232.28;4994597;28;4138;-71
2023/08/19 03:13:36;;;;;;;;;;;;;;;23.54;70.61;101226.50;5007425;28;4470;-71
2023/08/19 03:16:03;;;;;;;;;;;;;;;23.53;70.45;101225.75;4992331;28;4255;-71
2023/08/19 03:18:29;;;;;;;;;;;;;;;23.51;70.67;101227.81;4996121;28;4137;-71
2023/08/19 03:20:57;;;;;;;;;;;;;;;23.51;70.54;101233.59;4995199;28;4488;-70
2023/08/19 03:23:24;;;;;;;;;;;;;;;23.49;70.61;101225.59;5001337;28;4286;-71
2023/08/19 03:25:51;;;;;;;;;;;;;;;23.49;70.23;101230.63;5011914;28;4162;-70
2023/08/19 03:28:18;;;;;;;;;;;;;;;23.47;70.29;101230.53;4994928;28;4119;-71
2023/08/19 03:30:44;;;;;;;;;;;;;;;23.44;70.37;101229.72;5001823;28;3997;-71
2023/08/19 03:33:11;;;;;;;;;;;;;;;23.46;70.27;101237.75;4994692;28;4472;-71
2023/08/19 03:35:37;;;;;;;;;;;;;;;23.45;70.30;101239.88;4996530;28;4018;-71
2023/08/19 03:38:06;;;;;;;;;;;;;;;23.46;70.47;101240.63;5011991;28;4159;-71
2023/08/19 03:40:32;;;;;;;;;;;;;;;23.41;70.33;101237.56;5011377;28;4211;-71
2023/08/19 03:42:59;;;;;;;;;;;;;;;23.45;70.36;101234.09;4999169;28;4181;-70
2023/08/19 03:45:32;;;;;;;;;;;;;;;23.33;70.57;101240.13;4990270;28;4009;-71
2023/08/19 03:47:58;;;;;;;;;;;;;;;23.38;70.39;101235.25;4994048;28;4501;-69
2023/08/19 03:50:25;;;;;;;;;;;;;;;23.37;70.48;101237.41;4995516;28;3979;-70
2023/08/19 03:52:51;;;;;;;;;;;;;;;23.37;70.19;101237.41;4996571;28;4185;-71
2023/08/19 03:55:18;;;;;;;;;;;;;;;23.35;69.97;101240.22;5000120;28;4156;-71
2023/08/19 03:57:44;;;;;;;;;;;;;;;23.29;69.89;101228.41;4995039;28;4006;-71
2023/08/19 04:00:11;;;;;;;;;;;;;;;23.27;69.96;101231.22;5001118;28;4009;-71
2023/08/19 04:02:40;;;;;;;;;;;;;;;23.27;69.68;101237.00;5001099;28;4313;-71
2023/08/19 04:05:08;;;;;;;;;;;;;;;23.29;69.35;101239.22;5019658;28;4106;-71
2023/08/19 04:07:34;;;;;;;;;;;;;;;23.31;69.44;101248.72;5000983;28;4415;-70
2023/08/19 04:10:01;;;;;;;;;;;;;;;23.33;69.30;101243.03;5001806;28;4205;-70
2023/08/19 04:12:27;;;;;;;;;;;;;;;23.30;69.26;101244.34;5005681;28;4438;-84
2023/08/19 04:14:54;;;;;;;;;;;;;;;23.32;69.35;101246.56;4999256;28;4240;-65
2023/08/19 04:17:20;;;;;;;;;;;;;;;23.28;69.58;101247.16;5016206;28;4036;-68
2023/08/19 04:19:47;;;;;;;;;;;;;;;23.29;69.45;101242.84;5004869;28;4104;-68
2023/08/19 04:22:16;;;;;;;;;;;;;;;23.25;69.75;101248.50;5008364;28;4191;-70
2023/08/19 04:24:42;;;;;;;;;;;;;;;23.21;69.94;101249.06;5014480;28;4176;-70
2023/08/19 04:27:09;;;;;;;;;;;;;;;23.24;69.50;101241.22;4998174;28;4195;-70
2023/08/19 04:29:35;;;;;;;;;;;;;;;23.12;70.17;101250.13;5002857;28;4020;-69
2023/08/19 04:32:02;;;;;;;;;;;;;;;23.19;70.05;101251.84;5008481;28;4383;-70
2023/08/19 04:34:30;;;;;;;;;;;;;;;23.22;70.71;101249.78;5000498;28;4453;-69
2023/08/19 04:36:58;;;;;;;;;;;;;;;22.98;72.20;101252.41;4999982;28;4129;-71
2023/08/19 04:39:26;;;;;;;;;;;;;;;22.93;72.86;101257.25;4991892;28;4063;-74
2023/08/19 04:41:56;;;;;;;;;;;;;;;22.85;73.59;101256.91;5005588;28;4211;-80
2023/08/19 04:44:26;;;;;;;;;;;;;;;22.57;75.37;101254.28;4998680;28;4068;-79
2023/08/19 04:46:52;;;;;;;;;;;;;;;22.66;75.65;101254.66;5010981;28;4316;-72
2023/08/19 04:49:19;;;;;;;;;;;;;;;22.82;75.13;101258.25;5001034;28;4151;-72
2023/08/19 04:51:45;;;;;;;;;;;;;;;22.86;75.39;101264.19;5000661;28;4318;-72
2023/08/19 04:54:12;;;;;;;;;;;;;;;22.92;75.55;101257.91;5000260;28;4026;-72
2023/08/19 04:56:38;;;;;;;;;;;;;;;22.88;75.82;101261.38;4998806;28;3954;-72
2023/08/19 04:59:06;;;;;;;;;;;;;;;22.92;76.10;101255.03;5013681;28;3998;-72
2023/08/19 05:01:33;;;;;;;;;;;;;;;22.85;77.21;101262.69;4998649;28;4118;-71
2023/08/19 05:03:59;;;;;;;;;;;;;;;22.91;77.11;101262.22;4996138;28;4349;-71
2023/08/19 05:06:26;;;;;;;;;;;;;;;22.85;77.46;101259.81;5007679;28;4028;-72
2023/08/19 05:08:53;;;;;;;;;;;;;;;22.83;78.14;101256.81;5003184;28;4081;-71
2023/08/19 05:11:20;;;;;;;;;;;;;;;22.86;78.18;101261.31;5013581;28;3946;-72
2023/08/19 05:13:49;;;;;;;;;;;;;;;22.93;77.83;101257.25;4996801;28;4099;-71
2023/08/19 05:16:16;;;;;;;;;;;;;;;22.96;78.11;101258.84;4989343;28;4068;-72
2023/08/19 05:18:42;;;;;;;;;;;;;;;22.96;78.16;101267.50;4995450;28;4326;-72
2023/08/19 05:21:09;;;;;;;;;;;;;;;22.96;78.33;101276.16;4995629;28;4156;-71
2023/08/19 05:23:35;;;;;;;;;;;;;;;23.00;78.34;101269.84;4999357;28;4475;-72
2023/08/19 05:26:02;;;;;;;;;;;;;;;23.03;77.91;101268.53;4995313;28;4170;-71
2023/08/19 05:28:28;;;;;;;;;;;;;;;23.03;78.33;101265.63;4999847;28;4050;-71
2023/08/19 05:30:55;;;;;;;;;;;;;;;23.08;77.94;101270.16;4997105;28;4197;-71
2023/08/19 05:33:21;;;;;;;;;;;;;;;23.06;78.49;101272.22;4999730;28;4375;-72
2023/08/19 05:35:47;;;;;;;;;;;;;;;23.06;78.11;101272.22;5001140;28;3948;-72
2023/08/19 05:38:14;;;;;;;;;;;;;;;23.06;78.14;101275.88;4996667;28;4413;-70
2023/08/19 05:40:40;;;;;;;;;;;;;;;23.08;78.42;101269.44;5001575;28;4076;-72
2023/08/19 05:43:06;;;;;;;;;;;;;;;23.08;78.27;101267.28;5003368;28;4145;-72
2023/08/19 05:45:33;;;;;;;;;;;;;;;23.05;78.51;101267.88;5003605;28;3916;-71
2023/08/19 05:48:00;;;;;;;;;;;;;;;23.05;78.17;101276.53;4998868;28;4027;-71
2023/08/19 05:50:26;;;;;;;;;;;;;;;23.03;78.35;101273.56;4997201;28;4013;-71
2023/08/19 05:52:53;;;;;;;;;;;;;;;23.05;78.28;101276.53;4996016;28;3972;-72
2023/08/19 05:55:19;;;;;;;;;;;;;;;23.04;78.36;101269.25;4998478;28;4179;-72
2023/08/19 05:57:46;;;;;;;;;;;;;;;23.04;78.53;101275.78;5012695;28;4229;-72
2023/08/19 06:00:12;;;;;;;;;;;;;;;23.03;78.42;101277.19;4995175;28;4200;-72
2023/08/19 06:02:39;;;;;;;;;;;;;;;23.06;78.50;101281.63;4996351;28;4012;-72
2023/08/19 06:05:06;;;;;;;;;;;;;;;23.06;78.44;101278.00;5001621;28;4697;-71
2023/08/19 06:07:33;;;;;;;;;;;;;;;23.07;78.44;101273.75;4998907;28;4412;-71
2023/08/19 06:10:00;;;;;;;;;;;;;;;23.05;78.68;101276.53;4995575;28;3939;-71
2023/08/19 06:12:26;;;;;;;;;;;;;;;23.06;78.59;101278.00;5002582;28;4062;-72
2023/08/19 06:14:53;;;;;;;;;;;;;;;23.04;78.87;101283.69;4998068;28;4202;-72
2023/08/19 06:17:19;;;;;;;;;;;;;;;23.03;78.49;101285.13;4996341;28;4176;-71
2023/08/19 06:19:46;;;;;;;;;;;;;;;23.00;78.77;101293.69;5000824;28;3981;-71
2023/08/19 06:22:12;;;;;;;;;;;;;;;22.99;78.71;101297.97;4997105;28;4131;-72
2023/08/19 06:24:39;;;;;;;;;;;;;;;22.98;78.86;101302.25;4994132;28;4140;-72
2023/08/19 06:27:05;;;;;;;;;;;;;;;23.03;78.96;101297.41;5001347;28;4927;-71
2023/08/19 06:29:31;;;;;;;;;;;;;;;23.04;79.81;101306.81;4999317;28;4217;-71
2023/08/19 06:31:58;;;;;;;;;;;;;;;23.05;79.78;101302.53;4998382;28;4213;-71
2023/08/19 06:34:24;;;;;;;;;;;;;;;23.07;80.47;101305.50;4998116;28;4106;-72
2023/08/19 06:36:51;;;;;;;;;;;;;;;23.09;79.96;101300.56;4995800;28;4359;-71
2023/08/19 06:39:20;;;;;;;;;;;;;;;23.15;79.73;101311.63;4997233;28;4231;-72
2023/08/19 06:41:46;;;;;;;;;;;;;;;23.12;80.66;101318.72;5000388;28;4180;-71
2023/08/19 06:44:17;;;;;;;;;;;;;;;22.70;82.95;101324.09;4996089;28;5356;-69
2023/08/19 06:46:44;;;;;;;;;;;;;;;22.65;83.79;101322.44;4994247;28;4390;-68
2023/08/19 06:49:10;;;;;;;;;;;;;;;22.82;84.38;101327.53;5010212;28;4103;-66
2023/08/19 06:51:36;;;;;;;;;;;;;;;22.83;83.98;101331.91;4999884;28;4093;-67
2023/08/19 06:54:03;;;;;;;;;;;;;;;22.96;83.39;101321.63;4995893;28;4134;-67
2023/08/19 06:56:33;;;;;;;;;;;;;;;22.95;82.53;101326.66;4999592;28;4196;-68
2023/08/19 06:59:08;;;;;;;;;;;;;;;22.97;82.51;101312.28;5007746;28;4256;-69
2023/08/19 07:01:34;;;;;;;;;;;;;;;23.05;83.73;101320.59;4993197;28;4181;-68
2023/08/19 07:04:01;;;;;;;;;;;;;;;22.96;83.06;101325.25;4992668;28;4162;-68
2023/08/19 07:06:28;;;;;;;;;;;;;;;23.10;84.45;101335.97;4999031;28;4050;-68
2023/08/19 07:08:55;;;;;;;;;;;;;;;23.06;83.31;101330.75;4998982;28;4093;-68
2023/08/19 07:11:21;;;;;;;;;;;;;;;23.21;82.21;101335.00;4999822;28;3991;-68
2023/08/19 07:13:47;;;;;;;;;;;;;;;23.29;83.67;101341.09;4999862;28;4938;-68
2023/08/19 07:16:15;;;;;;;;;;;;;;;23.27;82.42;101349.69;4997169;28;4132;-68
2023/08/19 07:18:41;;;;;;;;;;;;;;;23.31;81.32;101344.06;5003493;28;4177;-69
2023/08/19 07:21:09;;;;;;;;;;;;;;;23.39;80.82;101344.44;5005114;28;3953;-68
2023/08/19 07:23:36;;;;;;;;;;;;;;;23.50;80.27;101347.72;4995098;28;4110;-69
2023/08/19 07:26:03;;;;;;;;;;;;;;;23.52;79.96;101344.91;5010258;28;4177;-69
2023/08/19 07:28:29;;;;;;;;;;;;;;;23.48;80.14;101344.75;4994277;28;4919;-68
2023/08/19 07:30:56;;;;;;;;;;;;;;;23.61;79.02;101346.72;5000993;28;4188;-70
2023/08/19 07:33:23;;;;;;;;;;;;;;;23.63;78.72;101346.81;4997307;28;4188;-70
2023/08/19 07:35:49;;;;;;;;;;;;;;;23.62;78.14;101348.25;4992538;28;4294;-70
2023/08/19 07:38:16;;;;;;;;;;;;;;;23.63;78.13;101343.94;4994968;28;4065;-70
2023/08/19 07:40:42;;;;;;;;;;;;;;;23.62;77.96;101345.34;4997983;28;4492;-70
2023/08/19 07:43:09;;;;;;;;;;;;;;;23.66;77.95;101341.88;4991310;28;4336;-70
2023/08/19 07:45:38;;;;;;;;;;;;;;;23.67;77.63;101337.59;4999569;28;4009;-70
2023/08/19 07:48:04;;;;;;;;;;;;;;;23.66;77.47;101333.94;4996388;28;4488;-70
2023/08/19 07:50:30;;;;;;;;;;;;;;;23.65;77.35;101335.34;4998687;28;4120;-70
2023/08/19 07:52:57;;;;;;;;;;;;;;;23.63;77.32;101332.38;4996265;28;4156;-70
2023/08/19 07:55:24;;;;;;;;;;;;;;;23.65;76.95;101332.44;4997544;28;4317;-70
2023/08/19 07:57:50;;;;;;;;;;;;;;;23.66;77.05;101327.41;4996016;28;4164;-69
2023/08/19 08:00:16;;;;;;;;;;;;;;;23.66;77.06;101325.25;4996946;28;5254;-69
2023/08/19 08:02:43;;;;;;;;;;;;;;;23.68;76.99;101328.22;5001108;28;4003;-69
2023/08/19 08:05:09;;;;;;;;;;;;;;;23.67;76.84;101320.97;5001012;28;4834;-69
2023/08/19 08:07:36;;;;;;;;;;;;;;;23.68;76.49;101313.03;5000342;28;4287;-68
2023/08/19 08:10:03;;;;;;;;;;;;;;;23.69;76.41;101317.44;5004206;28;4364;-69
2023/08/19 08:12:30;;;;;;;;;;;;;;;23.67;76.28;101323.13;5000369;28;4182;-68
2023/08/19 08:14:59;;;;;;;;;;;;;;;23.70;76.33;101319.63;4996584;28;4121;-69
2023/08/19 08:17:26;;;;;;;;;;;;;;;23.71;76.10;101320.38;4998231;28;4237;-68
2023/08/19 08:19:53;;;;;;;;;;;;;;;23.71;76.12;101321.13;4995985;28;4311;-69
2023/08/19 08:22:20;;;;;;;;;;;;;;;23.71;76.10;101321.13;5003091;28;3971;-69
2023/08/19 08:24:47;;;;;;;;;;;;;;;23.72;75.93;101316.81;5002301;28;3999;-70
2023/08/19 08:27:13;;;;;;;;;;;;;;;23.72;75.73;101313.94;4998258;28;4130;-69
2023/08/19 08:29:40;;;;;;;;;;;;;;;23.74;75.55;101313.28;4998166;28;4009;-70
2023/08/19 08:32:06;;;;;;;;;;;;;;;23.74;75.64;101307.50;4993861;28;4164;-70
2023/08/19 08:34:33;;;;;;;;;;;;;;;23.74;75.34;101319.84;4999264;28;4338;-70
2023/08/19 08:36:59;;;;;;;;;;;;;;;23.75;75.26;101320.56;4998403;28;4381;-69
2023/08/19 08:39:25;;;;;;;;;;;;;;;23.75;75.06;101315.53;4996727;28;4126;-70
2023/08/19 08:41:52;;;;;;;;;;;;;;;23.76;75.22;101322.81;5000415;28;4102;-70
2023/08/19 08:44:21;;;;;;;;;;;;;;;23.78;75.20;101314.22;5000920;28;4147;-70
2023/08/19 08:46:48;;;;;;;;;;;;;;;23.77;75.09;101321.38;5006931;28;4190;-70
2023/08/19 08:49:14;;;;;;;;;;;;;;;23.76;75.05;101317.03;5001875;28;4189;-70
2023/08/19 08:51:40;;;;;;;;;;;;;;;23.76;75.19;101317.03;5001983;28;4039;-69
2023/08/19 08:54:07;;;;;;;;;;;;;;;24.03;74.54;101315.91;4995691;28;4265;-70
2023/08/19 08:56:33;;;;;;;;;;;;;;;24.20;73.84;101316.53;4993381;28;3931;-72
2023/08/19 08:59:00;;;;;;;;;;;;;;;24.31;74.03;101311.88;4996690;28;4282;-68
2023/08/19 09:01:29;;;;;;;;;;;;;;;24.27;74.00;101314.59;4996297;28;4051;-65
2023/08/19 09:03:55;;;;;;;;;;;;;;;24.25;74.48;101318.88;4997032;28;4143;-74
2023/08/19 09:06:22;;;;;;;;;;;;;;;24.34;74.49;101319.22;5008662;28;4029;-77
2023/08/19 09:08:59;;;;;;;;;;;;;;;24.34;73.82;101319.22;4990065;28;4188;-76
2023/08/19 09:11:27;;;;;;;;;;;;;;;24.43;73.66;101326.78;4998944;28;4104;-71
2023/08/19 09:13:54;;;;;;;;;;;;;;;24.40;73.33;101322.34;4994080;28;4147;-68
2023/08/19 09:16:21;;;;;;;;;;;;;;;24.50;73.07;101331.41;4988596;28;5273;-72
2023/08/19 09:18:47;;;;;;;;;;;;;;;24.40;73.54;101322.34;4993349;28;4048;-74
2023/08/19 09:21:14;;;;;;;;;;;;;;;24.47;73.12;101332.75;4997061;28;4043;-69
2023/08/19 09:23:40;;;;;;;;;;;;;;;24.27;73.66;101326.19;4999547;28;5110;-73
2023/08/19 09:26:08;;;;;;;;;;;;;;;24.14;74.04;101322.81;4994741;28;4192;-72
2023/08/19 09:28:34;;;;;;;;;;;;;;;24.38;74.11;101325.16;4997048;28;4081;-70
2023/08/19 09:31:01;;;;;;;;;;;;;;;24.57;72.86;101318.63;4993835;28;4969;-72
2023/08/19 09:33:27;;;;;;;;;;;;;;;24.58;72.54;101325.16;4995560;28;4207;-74
2023/08/19 09:35:57;;;;;;;;;;;;;;;24.64;72.17;101320.34;4999122;28;4421;-73
2023/08/19 09:38:25;;;;;;;;;;;;;;;24.69;71.89;101323.38;4995292;28;5280;-72
2023/08/19 09:40:59;;;;;;;;;;;;;;;24.70;71.97;101325.63;4995530;28;4345;-69
2023/08/19 09:43:25;;;;;;;;;;;;;;;24.73;71.65;101329.31;5013777;28;5342;-73
2023/08/19 09:45:54;;;;;;;;;;;;;;;24.62;71.80;101325.31;5007886;28;4320;-75
2023/08/19 09:48:24;;;;;;;;;;;;;;;24.43;72.62;101321.72;5004698;28;4176;-76
2023/08/19 09:50:50;;;;;;;;;;;;;;;24.42;72.81;101307.94;4995023;28;4046;-76
2023/08/19 09:53:16;;;;;;;;;;;;;;;24.45;72.89;101306.59;5002974;28;4251;-82
2023/08/19 09:55:46;;;;;;;;;;;;;;;24.56;72.63;101311.38;5000107;28;4506;-83
2023/08/19 09:58:13;;;;;;;;;;;;;;;24.56;72.58;101317.16;5008987;28;5212;-78
2023/08/19 10:00:39;;;;;;;;;;;;;;;24.79;71.72;101315.06;5008013;28;4206;-78
2023/08/19 10:03:06;;;;;;;;;;;;;;;24.86;71.46;101308.81;5000051;28;5343;-86
2023/08/19 10:05:38;;;;;;;;;;;;;;;24.82;71.33;101310.81;5000449;28;4139;-81
2023/08/19 10:08:06;;;;;;;;;;;;;;;24.83;71.63;101318.84;4999796;28;4093;-81
2023/08/19 10:10:32;;;;;;;;;;;;;;;24.92;71.40;101311.16;4995561;28;4331;-75
2023/08/19 10:13:00;;;;;;;;;;;;;;;24.95;71.10;101309.84;4997387;28;4434;-75
2023/08/19 10:15:26;;;;;;;;;;;;;;;24.87;70.74;101307.38;5000902;28;4180;-82
2023/08/19 10:17:54;;;;;;;;;;;;;;;25.15;70.42;101314.81;5015122;28;4148;-79
2023/08/19 10:20:22;;;;;;;;;;;;;;;25.04;70.46;101316.66;4997394;28;4093;-85
2023/08/19 10:22:52;;;;;;;;;;;;;;;24.81;71.03;101318.03;5004924;28;4275;-73
2023/08/19 10:25:19;;;;;;;;;;;;;;;24.76;71.13;101319.28;5001951;28;4112;-72
2023/08/19 10:27:45;;;;;;;;;;;;;;;24.76;71.08;101317.16;5003205;28;4100;-72
2023/08/19 10:30:23;;;;;;;;;;;;;;;24.83;71.12;101326.78;5002841;28;4312;-73
2023/08/19 10:32:50;;;;;;;;;;;;;;;24.93;70.92;101321.34;5007188;28;3995;-78
2023/08/19 10:35:16;;;;;;;;;;;;;;;24.75;71.50;101317.81;4991279;28;4583;-74
2023/08/19 10:37:43;;;;;;;;;;;;;;;24.92;71.22;101322.75;5001599;28;4118;-75
2023/08/19 10:40:13;;;;;;;;;;;;;;;25.07;70.44;101316.03;5007439;28;4017;-74
2023/08/19 10:42:40;;;;;;;;;;;;;;;25.12;70.22;101310.38;5005652;28;4019;-73
2023/08/19 10:45:13;;;;;;;;;;;;;;;25.16;70.20;101319.97;5002101;28;3986;-72
2023/08/19 10:47:41;;;;;;;;;;;;;;;25.23;70.10;101310.09;5007403;28;4205;-72
2023/08/19 10:50:07;;;;;;;;;;;;;;;25.22;70.01;101305.72;5014499;28;4182;-73
2023/08/19 10:52:33;;;;;;;;;;;;;;;24.85;71.06;101318.91;5019332;28;4155;-75
2023/08/19 10:55:00;;;;;;;;;;;;;;;24.92;70.56;101316.22;5001069;28;4168;-68
2023/08/19 10:57:27;;;;;;;;;;;;;;;24.89;70.77;101312.50;4998074;28;4142;-74
2023/08/19 10:59:54;;;;;;;;;;;;;;;25.00;71.27;101305.66;4995998;28;4440;-73
2023/08/19 11:02:20;;;;;;;;;;;;;;;24.87;70.92;101310.28;5010395;28;4111;-69
2023/08/19 11:04:47;;;;;;;;;;;;;;;24.91;71.03;101315.47;4996248;28;4159;-69
2023/08/19 11:07:14;;;;;;;;;;;;;;;24.90;70.75;101304.56;4994807;28;4997;-72
2023/08/19 11:09:41;;;;;;;;;;;;;;;24.89;70.91;101303.81;4992226;28;4347;-73
2023/08/19 11:12:08;;;;;;;;;;;;;;;24.92;70.66;101304.63;4993170;28;4044;-74
2023/08/19 11:14:34;;;;;;;;;;;;;;;24.80;71.39;101299.16;5004489;28;4180;-74
2023/08/19 11:17:02;;;;;;;;;;;;;;;24.83;71.16;101298.56;5004122;28;4067;-73
2023/08/19 11:19:30;;;;;;;;;;;;;;;24.87;70.99;101292.16;4994066;28;4112;-72
2023/08/19 11:21:57;;;;;;;;;;;;;;;24.83;71.09;101289.13;4995170;28;4763;-73
2023/08/19 11:24:33;;;;;;;;;;;;;;;24.88;70.85;101299.47;4997611;28;3973;-74
2023/08/19 11:27:00;;;;;;;;;;;;;;;24.82;70.94;101290.53;4999916;28;3853;-74
2023/08/19 11:29:26;;;;;;;;;;;;;;;24.77;71.14;101297.63;5000155;28;4112;-74
2023/08/19 11:31:53;;;;;;;;;;;;;;;24.75;71.28;101303.34;5003073;28;4084;-74
2023/08/19 11:34:19;;;;;;;;;;;;;;;24.72;71.42;101305.41;5007054;28;4042;-74
2023/08/19 11:36:46;;;;;;;;;;;;;;;24.71;71.20;101303.19;4996567;28;4179;-74
2023/08/19 11:39:12;;;;;;;;;;;;;;;24.70;71.39;101301.72;5001068;28;4048;-74
2023/08/19 11:41:39;;;;;;;;;;;;;;;24.69;71.24;101294.44;5023111;28;3912;-74
2023/08/19 11:44:06;;;;;;;;;;;;;;;24.67;71.30;101301.63;5005945;28;4992;-74
2023/08/19 11:46:32;;;;;;;;;;;;;;;24.67;71.43;101298.75;5004858;28;4050;-74
2023/08/19 11:49:01;;;;;;;;;;;;;;;24.66;71.31;101287.81;5003150;28;4073;-74
2023/08/19 11:51:27;;;;;;;;;;;;;;;24.65;71.31;101289.25;4999704;28;4109;-74
2023/08/19 11:53:54;;;;;;;;;;;;;;;24.64;71.46;101287.75;5002092;28;3944;-74
2023/08/19 11:56:21;;;;;;;;;;;;;;;24.62;71.51;101291.34;5005761;28;4069;-73
2023/08/19 11:58:51;;;;;;;;;;;;;;;24.62;71.51;101290.56;5001083;28;4483;-74
2023/08/19 12:01:17;;;;;;;;;;;;;;;24.62;71.40;101285.53;4998347;28;4061;-74
2023/08/19 12:03:47;;;;;;;;;;;;;;;24.61;71.42;101294.88;5005451;28;4064;-74
2023/08/19 12:06:14;;;;;;;;;;;;;;;24.60;71.58;101288.38;5001208;28;4109;-74
2023/08/19 12:08:41;;;;;;;;;;;;;;;24.59;71.40;101292.66;5000116;28;4222;-74
2023/08/19 12:11:08;;;;;;;;;;;;;;;24.60;71.55;101281.81;5001703;28;3998;-74
2023/08/19 12:13:34;;;;;;;;;;;;;;;24.58;71.49;101282.50;5002284;28;4051;-74
2023/08/19 12:16:01;;;;;;;;;;;;;;;24.58;71.51;101279.59;4999518;28;4233;-74
2023/08/19 12:18:29;;;;;;;;;;;;;;;24.57;71.50;101283.88;5008818;28;4097;-73
2023/08/19 12:20:55;;;;;;;;;;;;;;;24.57;71.61;101280.25;5004280;28;4091;-73
2023/08/19 12:23:22;;;;;;;;;;;;;;;24.56;71.70;101285.31;5005235;28;4141;-74
2023/08/19 12:25:49;;;;;;;;;;;;;;;24.57;71.67;101283.16;5010403;28;4465;-74
2023/08/19 12:28:15;;;;;;;;;;;;;;;24.56;71.69;101276.63;5003471;28;4124;-74
2023/08/19 12:30:42;;;;;;;;;;;;;;;24.56;71.69;101275.88;5004105;28;4470;-74
2023/08/19 12:33:11;;;;;;;;;;;;;;;24.56;71.64;101273.72;5006813;28;4221;-74
2023/08/19 12:35:37;;;;;;;;;;;;;;;24.54;71.59;101276.56;5007056;28;4233;-74
2023/08/19 12:38:04;;;;;;;;;;;;;;;24.55;71.78;101275.13;5003753;28;4425;-74
2023/08/19 12:40:30;;;;;;;;;;;;;;;24.55;71.63;101280.91;5006706;28;4089;-74
2023/08/19 12:42:57;;;;;;;;;;;;;;;24.55;71.63;101285.97;5006232;28;4071;-73
2023/08/19 12:45:23;;;;;;;;;;;;;;;24.54;71.61;101285.25;5008727;28;3908;-74
2023/08/19 12:47:50;;;;;;;;;;;;;;;24.55;71.60;101274.41;5005164;28;4474;-74